MXD8693 VOML-WMKK
Flight info
| Callsign | MXD8693 |
|---|---|
| Flight time | 4h 45m |
| Altitude | 33000 |
| Route | MML T5 BIA W116 MMV P574 ANSAX L762 ISVUR N563 SALAX SALA3J VASMA |
| Aircraft | B738/M-SDE2E3FGHIRWXY/LB1 |
Departure
| Time | 2026-05-07 16:18 |
|---|---|
| Airport | Mangaluru International Airport (VOML) |
Arrival
| Time | 2026-05-07 21:04 |
|---|---|
| Airport | Kuala Lumpur International Airport (WMKK) |
| Time | Latitude | Longitude | Altitude | Speed | Heading |
|---|---|---|---|---|---|
| 2026-05-07 16:05 | 12.94986 | 74.87338 | 323 ft | 0 kts | 329° |
| 2026-05-07 16:12 | 12.94983 | 74.87340 | 323 ft | 3 kts | 329° |
| 2026-05-07 16:12 | 12.94960 | 74.87354 | 319 ft | 4 kts | 329° |
| 2026-05-07 16:12 | 12.94940 | 74.87364 | 319 ft | 4 kts | 356° |
| 2026-05-07 16:13 | 12.94919 | 74.87357 | 321 ft | 4 kts | 53° |
| 2026-05-07 16:13 | 12.94910 | 74.87343 | 321 ft | 1 kts | 58° |
| 2026-05-07 16:13 | 12.94909 | 74.87341 | 321 ft | 0 kts | 58° |
| 2026-05-07 16:15 | 12.94911 | 74.87344 | 323 ft | 1 kts | 58° |
| 2026-05-07 16:15 | 12.94921 | 74.87361 | 321 ft | 5 kts | 58° |
| 2026-05-07 16:15 | 12.94951 | 74.87411 | 321 ft | 10 kts | 58° |
| 2026-05-07 16:16 | 12.94989 | 74.87472 | 322 ft | 10 kts | 58° |
| 2026-05-07 16:16 | 12.95024 | 74.87531 | 323 ft | 10 kts | 66° |
| 2026-05-07 16:16 | 12.94998 | 74.87586 | 323 ft | 9 kts | 152° |
| 2026-05-07 16:16 | 12.94943 | 74.87621 | 322 ft | 9 kts | 147° |
| 2026-05-07 16:17 | 12.94891 | 74.87656 | 321 ft | 9 kts | 147° |
| 2026-05-07 16:17 | 12.94881 | 74.87711 | 321 ft | 9 kts | 62° |
| 2026-05-07 16:17 | 12.94940 | 74.87808 | 321 ft | 42 kts | 58° |
| 2026-05-07 16:17 | 12.95226 | 74.88283 | 324 ft | 113 kts | 58° |
| 2026-05-07 16:18 | 12.95752 | 74.89154 | 323 ft | 173 kts | 58° |
| 2026-05-07 16:18 | 12.96443 | 74.90292 | 776 ft | 193 kts | 57° |
| 2026-05-07 16:18 | 12.96991 | 74.91532 | 1704 ft | 191 kts | 80° |
| 2026-05-07 16:18 | 12.97111 | 74.92926 | 2324 ft | 209 kts | 81° |
| 2026-05-07 16:19 | 12.97257 | 74.94482 | 2470 ft | 228 kts | 81° |
| 2026-05-07 16:19 | 12.97413 | 74.96165 | 2618 ft | 247 kts | 82° |
| 2026-05-07 16:19 | 12.97583 | 74.97990 | 2817 ft | 267 kts | 82° |
| 2026-05-07 16:19 | 12.97759 | 74.99913 | 3285 ft | 274 kts | 82° |
| 2026-05-07 16:20 | 12.97937 | 75.01858 | 3900 ft | 274 kts | 83° |
| 2026-05-07 16:20 | 12.98111 | 75.03788 | 4487 ft | 276 kts | 83° |
| 2026-05-07 16:20 | 12.98289 | 75.05747 | 5153 ft | 275 kts | 82° |
| 2026-05-07 16:20 | 12.98468 | 75.07710 | 5757 ft | 277 kts | 83° |
| 2026-05-07 16:21 | 12.98647 | 75.09683 | 6367 ft | 278 kts | 83° |
| 2026-05-07 16:21 | 12.98826 | 75.11652 | 6962 ft | 277 kts | 83° |
| 2026-05-07 16:21 | 12.99005 | 75.13623 | 7563 ft | 277 kts | 83° |
| 2026-05-07 16:21 | 12.99184 | 75.15593 | 8141 ft | 278 kts | 84° |
| 2026-05-07 16:22 | 12.99364 | 75.17568 | 8737 ft | 278 kts | 84° |
| 2026-05-07 16:22 | 12.99544 | 75.19546 | 9343 ft | 279 kts | 84° |
| 2026-05-07 16:22 | 12.99723 | 75.21522 | 9941 ft | 279 kts | 84° |
| 2026-05-07 16:22 | 12.99907 | 75.23543 | 10210 ft | 293 kts | 84° |
| 2026-05-07 16:23 | 13.00099 | 75.25660 | 10333 ft | 310 kts | 84° |
| 2026-05-07 16:23 | 13.00304 | 75.27915 | 10454 ft | 326 kts | 84° |
| 2026-05-07 16:23 | 13.00519 | 75.30288 | 10566 ft | 341 kts | 84° |
| 2026-05-07 16:23 | 13.00742 | 75.32762 | 10683 ft | 355 kts | 84° |
| 2026-05-07 16:24 | 13.00972 | 75.35310 | 10976 ft | 362 kts | 84° |
| 2026-05-07 16:24 | 13.01205 | 75.37890 | 11425 ft | 364 kts | 84° |
| 2026-05-07 16:24 | 13.01438 | 75.40481 | 11874 ft | 367 kts | 84° |
| 2026-05-07 16:24 | 13.01675 | 75.43104 | 12284 ft | 371 kts | 85° |
| 2026-05-07 16:25 | 13.01907 | 75.45689 | 12671 ft | 375 kts | 84° |
| 2026-05-07 16:25 | 13.02147 | 75.48358 | 13101 ft | 378 kts | 84° |
| 2026-05-07 16:25 | 13.02386 | 75.51022 | 13548 ft | 381 kts | 85° |
| 2026-05-07 16:25 | 13.02630 | 75.53738 | 13929 ft | 384 kts | 84° |
| 2026-05-07 16:26 | 13.02874 | 75.56474 | 14322 ft | 387 kts | 85° |
| 2026-05-07 16:26 | 13.03121 | 75.59229 | 14715 ft | 390 kts | 85° |
| 2026-05-07 16:26 | 13.03369 | 75.62010 | 15099 ft | 393 kts | 85° |
| 2026-05-07 16:26 | 13.03535 | 75.63865 | 15353 ft | 395 kts | 85° |
| 2026-05-07 16:27 | 13.03870 | 75.67634 | 15883 ft | 399 kts | 85° |
| 2026-05-07 16:27 | 13.04124 | 75.70483 | 16259 ft | 402 kts | 85° |
| 2026-05-07 16:27 | 13.04379 | 75.73350 | 16639 ft | 405 kts | 85° |
| 2026-05-07 16:27 | 13.04634 | 75.76230 | 17003 ft | 407 kts | 85° |
| 2026-05-07 16:28 | 13.04892 | 75.79132 | 17389 ft | 410 kts | 84° |
| 2026-05-07 16:28 | 13.05151 | 75.82063 | 17674 ft | 415 kts | 84° |
| 2026-05-07 16:28 | 13.05413 | 75.85025 | 17977 ft | 419 kts | 84° |
| 2026-05-07 16:28 | 13.05677 | 75.88014 | 18309 ft | 421 kts | 84° |
| 2026-05-07 16:29 | 13.05938 | 75.90973 | 18622 ft | 423 kts | 84° |
| 2026-05-07 16:29 | 13.06204 | 75.93986 | 18964 ft | 424 kts | 84° |
| 2026-05-07 16:29 | 13.06379 | 75.95982 | 19188 ft | 424 kts | 84° |
| 2026-05-07 16:29 | 13.06645 | 75.99003 | 19509 ft | 426 kts | 84° |
| 2026-05-07 16:30 | 13.07000 | 76.03051 | 19922 ft | 427 kts | 84° |
| 2026-05-07 16:30 | 13.07266 | 76.06097 | 20214 ft | 429 kts | 84° |
| 2026-05-07 16:30 | 13.07442 | 76.08119 | 20409 ft | 430 kts | 84° |
| 2026-05-07 16:30 | 13.07706 | 76.11177 | 20720 ft | 431 kts | 84° |
| 2026-05-07 16:31 | 13.07971 | 76.14247 | 20989 ft | 433 kts | 84° |
| 2026-05-07 16:31 | 13.08236 | 76.17324 | 21271 ft | 434 kts | 84° |
| 2026-05-07 16:31 | 13.08502 | 76.20413 | 21531 ft | 436 kts | 84° |
| 2026-05-07 16:31 | 13.08855 | 76.24525 | 21892 ft | 437 kts | 84° |
| 2026-05-07 16:32 | 13.09122 | 76.27630 | 22160 ft | 438 kts | 84° |
| 2026-05-07 16:32 | 13.09302 | 76.29737 | 22310 ft | 440 kts | 84° |
| 2026-05-07 16:32 | 13.09571 | 76.32868 | 22597 ft | 440 kts | 84° |
| 2026-05-07 16:32 | 13.09839 | 76.36000 | 22818 ft | 442 kts | 84° |
| 2026-05-07 16:33 | 13.10104 | 76.39110 | 23043 ft | 443 kts | 84° |
| 2026-05-07 16:33 | 13.10373 | 76.42259 | 23305 ft | 444 kts | 84° |
| 2026-05-07 16:33 | 13.10643 | 76.45428 | 23477 ft | 446 kts | 84° |
| 2026-05-07 16:33 | 13.10913 | 76.48602 | 23705 ft | 446 kts | 84° |
| 2026-05-07 16:34 | 13.11183 | 76.51785 | 23851 ft | 449 kts | 84° |
| 2026-05-07 16:34 | 13.11455 | 76.54992 | 23903 ft | 454 kts | 84° |
| 2026-05-07 16:34 | 13.11729 | 76.58222 | 24063 ft | 455 kts | 84° |
| 2026-05-07 16:34 | 13.12002 | 76.61459 | 24259 ft | 455 kts | 84° |
| 2026-05-07 16:35 | 13.12272 | 76.64661 | 24483 ft | 455 kts | 84° |
| 2026-05-07 16:35 | 13.12546 | 76.67901 | 24625 ft | 457 kts | 85° |
| 2026-05-07 16:35 | 13.12818 | 76.71143 | 24809 ft | 457 kts | 85° |
| 2026-05-07 16:35 | 13.13092 | 76.74401 | 24968 ft | 459 kts | 85° |
| 2026-05-07 16:36 | 13.13367 | 76.77673 | 25135 ft | 459 kts | 85° |
| 2026-05-07 16:36 | 13.13640 | 76.80937 | 25319 ft | 460 kts | 85° |
| 2026-05-07 16:36 | 13.13914 | 76.84217 | 25459 ft | 462 kts | 85° |
| 2026-05-07 16:36 | 13.14188 | 76.87496 | 25642 ft | 462 kts | 85° |
| 2026-05-07 16:37 | 13.14463 | 76.90792 | 25762 ft | 464 kts | 85° |
| 2026-05-07 16:37 | 13.14738 | 76.94097 | 25888 ft | 466 kts | 85° |
| 2026-05-07 16:37 | 13.15011 | 76.97374 | 26040 ft | 467 kts | 85° |
| 2026-05-07 16:37 | 13.15287 | 77.00697 | 26201 ft | 467 kts | 85° |
| 2026-05-07 16:38 | 13.15563 | 77.04027 | 26352 ft | 468 kts | 85° |
| 2026-05-07 16:38 | 13.15838 | 77.07354 | 26489 ft | 469 kts | 85° |
| 2026-05-07 16:38 | 13.16114 | 77.10693 | 26631 ft | 470 kts | 85° |
| 2026-05-07 16:38 | 13.16390 | 77.14043 | 26769 ft | 471 kts | 85° |
| 2026-05-07 16:39 | 13.16667 | 77.17404 | 26907 ft | 472 kts | 85° |
| 2026-05-07 16:39 | 13.16943 | 77.20765 | 27042 ft | 473 kts | 85° |
| 2026-05-07 16:39 | 13.17217 | 77.24098 | 27186 ft | 474 kts | 85° |
| 2026-05-07 16:39 | 13.17493 | 77.27465 | 27362 ft | 474 kts | 85° |
| 2026-05-07 16:40 | 13.17770 | 77.30846 | 27486 ft | 474 kts | 85° |
| 2026-05-07 16:40 | 13.18046 | 77.34231 | 27563 ft | 477 kts | 85° |
| 2026-05-07 16:40 | 13.18323 | 77.37629 | 27618 ft | 479 kts | 85° |
| 2026-05-07 16:40 | 13.18598 | 77.41004 | 27749 ft | 480 kts | 85° |
| 2026-05-07 16:41 | 13.18875 | 77.44414 | 27894 ft | 480 kts | 85° |
| 2026-05-07 16:41 | 13.19152 | 77.47830 | 28025 ft | 481 kts | 85° |
| 2026-05-07 16:41 | 13.19430 | 77.51259 | 28142 ft | 482 kts | 85° |
| 2026-05-07 16:41 | 13.19708 | 77.54691 | 28250 ft | 483 kts | 85° |
| 2026-05-07 16:42 | 13.19985 | 77.58125 | 28417 ft | 482 kts | 85° |
| 2026-05-07 16:42 | 13.20261 | 77.61550 | 28588 ft | 482 kts | 86° |
| 2026-05-07 16:42 | 13.20537 | 77.64979 | 28772 ft | 481 kts | 86° |
| 2026-05-07 16:42 | 13.20778 | 77.68405 | 28910 ft | 481 kts | 89° |
| 2026-05-07 16:43 | 13.20635 | 77.71787 | 29062 ft | 479 kts | 99° |
| 2026-05-07 16:43 | 13.20081 | 77.75153 | 29248 ft | 478 kts | 101° |
| 2026-05-07 16:43 | 13.19477 | 77.78504 | 29446 ft | 477 kts | 101° |
| 2026-05-07 16:43 | 13.18867 | 77.81844 | 29765 ft | 474 kts | 101° |
| 2026-05-07 16:44 | 13.18268 | 77.85174 | 29917 ft | 474 kts | 101° |
| 2026-05-07 16:44 | 13.17680 | 77.88508 | 30034 ft | 475 kts | 101° |
| 2026-05-07 16:44 | 13.17102 | 77.91848 | 30208 ft | 474 kts | 101° |
| 2026-05-07 16:44 | 13.16529 | 77.95189 | 30334 ft | 475 kts | 101° |
| 2026-05-07 16:45 | 13.15963 | 77.98512 | 30534 ft | 473 kts | 101° |
| 2026-05-07 16:45 | 13.15398 | 78.01837 | 30717 ft | 472 kts | 101° |
| 2026-05-07 16:45 | 13.14841 | 78.05110 | 30830 ft | 473 kts | 101° |
| 2026-05-07 16:45 | 13.14276 | 78.08426 | 31001 ft | 472 kts | 101° |
| 2026-05-07 16:46 | 13.13709 | 78.11745 | 31100 ft | 473 kts | 101° |
| 2026-05-07 16:46 | 13.13140 | 78.15073 | 31241 ft | 473 kts | 101° |
| 2026-05-07 16:46 | 13.12572 | 78.18390 | 31447 ft | 471 kts | 101° |
| 2026-05-07 16:46 | 13.12004 | 78.21709 | 31560 ft | 472 kts | 101° |
| 2026-05-07 16:47 | 13.11435 | 78.25027 | 31729 ft | 471 kts | 101° |
| 2026-05-07 16:47 | 13.10867 | 78.28336 | 31888 ft | 471 kts | 101° |
| 2026-05-07 16:47 | 13.10297 | 78.31655 | 32006 ft | 472 kts | 101° |
| 2026-05-07 16:47 | 13.09728 | 78.34966 | 32202 ft | 471 kts | 101° |
| 2026-05-07 16:48 | 13.09159 | 78.38272 | 32344 ft | 471 kts | 101° |
| 2026-05-07 16:48 | 13.08589 | 78.41585 | 32458 ft | 472 kts | 101° |
| 2026-05-07 16:48 | 13.08019 | 78.44891 | 32642 ft | 471 kts | 101° |
| 2026-05-07 16:48 | 13.07448 | 78.48203 | 32781 ft | 471 kts | 101° |
| 2026-05-07 16:49 | 13.06884 | 78.51474 | 32952 ft | 470 kts | 101° |
| 2026-05-07 16:49 | 13.06313 | 78.54777 | 33125 ft | 470 kts | 101° |
| 2026-05-07 16:49 | 13.05742 | 78.58079 | 33247 ft | 471 kts | 101° |
| 2026-05-07 16:49 | 13.05171 | 78.61384 | 33420 ft | 470 kts | 101° |
| 2026-05-07 16:50 | 13.04597 | 78.64697 | 33577 ft | 470 kts | 101° |
| 2026-05-07 16:50 | 13.04026 | 78.67996 | 33717 ft | 470 kts | 101° |
| 2026-05-07 16:50 | 13.03453 | 78.71304 | 33856 ft | 470 kts | 101° |
| 2026-05-07 16:50 | 13.02882 | 78.74594 | 34049 ft | 468 kts | 101° |
| 2026-05-07 16:51 | 13.02312 | 78.77876 | 34214 ft | 467 kts | 101° |
| 2026-05-07 16:51 | 13.01742 | 78.81157 | 34337 ft | 468 kts | 101° |
| 2026-05-07 16:51 | 13.01171 | 78.84438 | 34434 ft | 468 kts | 101° |
| 2026-05-07 16:51 | 13.00598 | 78.87731 | 34582 ft | 468 kts | 101° |
| 2026-05-07 16:52 | 13.00033 | 78.90979 | 34730 ft | 467 kts | 101° |
| 2026-05-07 16:52 | 12.99461 | 78.94260 | 34851 ft | 467 kts | 101° |
| 2026-05-07 16:52 | 12.98888 | 78.97543 | 34907 ft | 468 kts | 101° |
| 2026-05-07 16:53 | 12.97741 | 79.04118 | 34896 ft | 469 kts | 101° |
| 2026-05-07 16:53 | 12.96750 | 79.10729 | 34893 ft | 469 kts | 93° |
| 2026-05-07 16:54 | 12.96853 | 79.17419 | 34889 ft | 468 kts | 89° |
| 2026-05-07 16:54 | 12.97063 | 79.24048 | 34891 ft | 467 kts | 89° |
| 2026-05-07 16:55 | 12.97233 | 79.30703 | 34878 ft | 467 kts | 90° |
| 2026-05-07 16:55 | 12.97372 | 79.37353 | 34876 ft | 467 kts | 90° |
| 2026-05-07 16:56 | 12.97500 | 79.44013 | 34857 ft | 467 kts | 90° |
| 2026-05-07 16:56 | 12.97692 | 79.54012 | 34858 ft | 468 kts | 90° |
| 2026-05-07 16:57 | 12.97818 | 79.60632 | 34851 ft | 468 kts | 90° |
| 2026-05-07 16:57 | 12.97944 | 79.67312 | 34848 ft | 468 kts | 90° |
| 2026-05-07 16:58 | 12.98068 | 79.73991 | 34883 ft | 469 kts | 90° |
| 2026-05-07 16:58 | 12.98190 | 79.80681 | 34877 ft | 469 kts | 90° |
| 2026-05-07 16:59 | 12.98311 | 79.87375 | 34865 ft | 470 kts | 90° |
| 2026-05-07 16:59 | 12.98430 | 79.94075 | 34853 ft | 470 kts | 90° |
| 2026-05-07 17:00 | 12.98548 | 80.00783 | 34846 ft | 470 kts | 90° |
| 2026-05-07 17:00 | 12.98663 | 80.07448 | 34878 ft | 470 kts | 90° |
| 2026-05-07 17:01 | 12.98549 | 80.14145 | 34849 ft | 469 kts | 99° |
| 2026-05-07 17:01 | 12.96755 | 80.20530 | 34856 ft | 466 kts | 115° |
| 2026-05-07 17:02 | 12.94066 | 80.26576 | 34854 ft | 465 kts | 115° |
| 2026-05-07 17:02 | 12.91363 | 80.32600 | 34849 ft | 465 kts | 115° |
| 2026-05-07 17:03 | 12.88695 | 80.38639 | 34858 ft | 465 kts | 115° |
| 2026-05-07 17:03 | 12.86041 | 80.44698 | 34842 ft | 466 kts | 115° |
| 2026-05-07 17:04 | 12.83413 | 80.50712 | 34849 ft | 466 kts | 115° |
| 2026-05-07 17:04 | 12.80762 | 80.56772 | 34844 ft | 466 kts | 115° |
| 2026-05-07 17:05 | 12.78107 | 80.62833 | 34853 ft | 466 kts | 115° |
| 2026-05-07 17:05 | 12.75449 | 80.68897 | 34864 ft | 466 kts | 115° |
| 2026-05-07 17:06 | 12.72790 | 80.74955 | 34848 ft | 466 kts | 115° |
| 2026-05-07 17:06 | 12.70132 | 80.81009 | 34865 ft | 466 kts | 115° |
| 2026-05-07 17:07 | 12.67471 | 80.87067 | 34857 ft | 466 kts | 115° |
| 2026-05-07 17:07 | 12.64811 | 80.93116 | 34868 ft | 466 kts | 115° |
| 2026-05-07 17:08 | 12.62163 | 80.99133 | 34867 ft | 466 kts | 116° |
| 2026-05-07 17:08 | 12.59499 | 81.05184 | 34862 ft | 466 kts | 115° |
| 2026-05-07 17:09 | 12.56834 | 81.11231 | 34869 ft | 465 kts | 115° |
| 2026-05-07 17:09 | 12.54175 | 81.17261 | 34859 ft | 465 kts | 115° |
| 2026-05-07 17:10 | 12.51514 | 81.23292 | 34870 ft | 464 kts | 116° |
| 2026-05-07 17:10 | 12.48873 | 81.29271 | 34862 ft | 463 kts | 115° |
| 2026-05-07 17:11 | 12.46221 | 81.35273 | 34862 ft | 463 kts | 115° |
| 2026-05-07 17:11 | 12.43564 | 81.41281 | 34868 ft | 462 kts | 116° |
| 2026-05-07 17:12 | 12.40904 | 81.47292 | 34860 ft | 463 kts | 115° |
| 2026-05-07 17:12 | 12.38248 | 81.53290 | 34871 ft | 462 kts | 115° |
| 2026-05-07 17:13 | 12.35606 | 81.59251 | 34861 ft | 463 kts | 116° |
| 2026-05-07 17:13 | 12.32944 | 81.65254 | 34867 ft | 463 kts | 116° |
| 2026-05-07 17:14 | 12.30281 | 81.71255 | 34860 ft | 463 kts | 115° |
| 2026-05-07 17:14 | 12.28066 | 81.76242 | 34862 ft | 463 kts | 115° |
| 2026-05-07 17:15 | 12.24945 | 81.83267 | 34869 ft | 464 kts | 115° |
| 2026-05-07 17:15 | 12.22293 | 81.89231 | 34858 ft | 464 kts | 115° |
| 2026-05-07 17:16 | 12.19622 | 81.95233 | 34869 ft | 464 kts | 115° |
| 2026-05-07 17:16 | 12.17397 | 82.00230 | 34859 ft | 464 kts | 115° |
| 2026-05-07 17:17 | 12.14725 | 82.06227 | 34870 ft | 463 kts | 115° |
| 2026-05-07 17:17 | 12.11600 | 82.13234 | 34864 ft | 463 kts | 115° |
| 2026-05-07 17:18 | 12.09378 | 82.18215 | 34867 ft | 463 kts | 115° |
| 2026-05-07 17:18 | 12.06271 | 82.25174 | 34869 ft | 462 kts | 115° |
| 2026-05-07 17:19 | 12.04048 | 82.30149 | 34861 ft | 462 kts | 115° |
| 2026-05-07 17:19 | 12.01378 | 82.36120 | 34870 ft | 462 kts | 115° |
| 2026-05-07 17:20 | 11.98719 | 82.42064 | 34852 ft | 462 kts | 115° |
| 2026-05-07 17:20 | 11.96050 | 82.48027 | 34865 ft | 462 kts | 115° |
| 2026-05-07 17:21 | 11.93375 | 82.53998 | 34857 ft | 462 kts | 115° |
| 2026-05-07 17:21 | 11.90697 | 82.59973 | 34860 ft | 462 kts | 115° |
| 2026-05-07 17:22 | 11.88036 | 82.65904 | 34861 ft | 462 kts | 115° |
| 2026-05-07 17:22 | 11.85355 | 82.71878 | 34859 ft | 462 kts | 115° |
| 2026-05-07 17:23 | 11.82669 | 82.77857 | 34862 ft | 462 kts | 115° |
| 2026-05-07 17:23 | 11.79988 | 82.83822 | 34856 ft | 462 kts | 115° |
| 2026-05-07 17:24 | 11.77307 | 82.89785 | 34861 ft | 462 kts | 115° |
| 2026-05-07 17:24 | 11.74622 | 82.95751 | 34861 ft | 462 kts | 115° |
| 2026-05-07 17:25 | 11.71937 | 83.01712 | 34863 ft | 462 kts | 115° |
| 2026-05-07 17:25 | 11.69251 | 83.07673 | 34863 ft | 462 kts | 115° |
| 2026-05-07 17:26 | 11.66585 | 83.13587 | 34863 ft | 462 kts | 115° |
| 2026-05-07 17:26 | 11.63897 | 83.19546 | 34861 ft | 461 kts | 115° |
| 2026-05-07 17:27 | 11.61210 | 83.25499 | 34854 ft | 461 kts | 115° |
| 2026-05-07 17:27 | 11.58543 | 83.31401 | 34869 ft | 461 kts | 115° |
| 2026-05-07 17:28 | 11.55895 | 83.37353 | 34856 ft | 461 kts | 114° |
| 2026-05-07 17:28 | 11.53269 | 83.43324 | 34861 ft | 461 kts | 114° |
| 2026-05-07 17:29 | 11.50647 | 83.49282 | 34860 ft | 461 kts | 114° |
| 2026-05-07 17:29 | 11.48016 | 83.55243 | 34864 ft | 461 kts | 114° |
| 2026-05-07 17:30 | 11.45383 | 83.61201 | 34860 ft | 460 kts | 114° |
| 2026-05-07 17:30 | 11.42751 | 83.67150 | 34856 ft | 460 kts | 114° |
| 2026-05-07 17:31 | 11.40134 | 83.73062 | 34855 ft | 460 kts | 114° |
| 2026-05-07 17:31 | 11.37503 | 83.79004 | 34858 ft | 460 kts | 114° |
| 2026-05-07 17:32 | 11.34872 | 83.84939 | 34860 ft | 459 kts | 114° |
| 2026-05-07 17:32 | 11.32241 | 83.90873 | 34856 ft | 459 kts | 114° |
| 2026-05-07 17:33 | 11.29607 | 83.96808 | 34859 ft | 459 kts | 115° |
| 2026-05-07 17:33 | 11.26988 | 84.02706 | 34856 ft | 459 kts | 115° |
| 2026-05-07 17:34 | 11.24359 | 84.08623 | 34859 ft | 459 kts | 115° |
| 2026-05-07 17:34 | 11.21725 | 84.14548 | 34859 ft | 458 kts | 115° |
| 2026-05-07 17:35 | 11.19091 | 84.20469 | 34858 ft | 458 kts | 115° |
| 2026-05-07 17:35 | 11.16462 | 84.26376 | 34863 ft | 458 kts | 115° |
| 2026-05-07 17:36 | 11.13829 | 84.32286 | 34865 ft | 458 kts | 115° |
| 2026-05-07 17:36 | 11.11196 | 84.38193 | 34860 ft | 458 kts | 115° |
| 2026-05-07 17:37 | 11.08568 | 84.44087 | 34862 ft | 457 kts | 115° |
| 2026-05-07 17:37 | 11.05932 | 84.49994 | 34865 ft | 457 kts | 115° |
| 2026-05-07 17:38 | 11.03303 | 84.55883 | 34859 ft | 457 kts | 115° |
| 2026-05-07 17:38 | 11.00685 | 84.61741 | 34860 ft | 457 kts | 115° |
| 2026-05-07 17:39 | 10.98053 | 84.67629 | 34865 ft | 457 kts | 115° |
| 2026-05-07 17:39 | 10.95419 | 84.73518 | 34862 ft | 457 kts | 115° |
| 2026-05-07 17:40 | 10.92783 | 84.79407 | 34860 ft | 457 kts | 115° |
| 2026-05-07 17:40 | 10.90148 | 84.85290 | 34863 ft | 457 kts | 115° |
| 2026-05-07 17:41 | 10.87513 | 84.91170 | 34863 ft | 456 kts | 115° |
| 2026-05-07 17:41 | 10.84881 | 84.97039 | 34863 ft | 456 kts | 115° |
| 2026-05-07 17:42 | 10.82260 | 85.02880 | 34864 ft | 456 kts | 115° |
| 2026-05-07 17:42 | 10.79624 | 85.08753 | 34865 ft | 456 kts | 115° |
| 2026-05-07 17:43 | 10.76988 | 85.14621 | 34862 ft | 456 kts | 115° |
| 2026-05-07 17:43 | 10.74354 | 85.20481 | 34863 ft | 456 kts | 115° |
| 2026-05-07 17:44 | 10.71719 | 85.26340 | 34862 ft | 455 kts | 115° |
| 2026-05-07 17:44 | 10.69084 | 85.32195 | 34862 ft | 455 kts | 115° |
| 2026-05-07 17:45 | 10.66461 | 85.38020 | 34861 ft | 455 kts | 115° |
| 2026-05-07 17:45 | 10.63810 | 85.43905 | 34860 ft | 455 kts | 115° |
| 2026-05-07 17:46 | 10.61188 | 85.49721 | 34861 ft | 455 kts | 115° |
| 2026-05-07 17:46 | 10.58550 | 85.55570 | 34860 ft | 455 kts | 115° |
| 2026-05-07 17:47 | 10.55906 | 85.61428 | 34861 ft | 455 kts | 115° |
| 2026-05-07 17:47 | 10.53268 | 85.67269 | 34862 ft | 455 kts | 115° |
| 2026-05-07 17:48 | 10.50623 | 85.73124 | 34860 ft | 456 kts | 115° |
| 2026-05-07 17:48 | 10.47973 | 85.78985 | 34861 ft | 456 kts | 115° |
| 2026-05-07 17:49 | 10.45342 | 85.84801 | 34860 ft | 456 kts | 115° |
| 2026-05-07 17:49 | 10.42693 | 85.90653 | 34861 ft | 456 kts | 115° |
| 2026-05-07 17:50 | 10.40041 | 85.96508 | 34861 ft | 456 kts | 115° |
| 2026-05-07 17:50 | 10.37383 | 86.02375 | 34860 ft | 456 kts | 115° |
| 2026-05-07 17:51 | 10.34729 | 86.08229 | 34860 ft | 457 kts | 115° |
| 2026-05-07 17:51 | 10.32069 | 86.14091 | 34861 ft | 457 kts | 115° |
| 2026-05-07 17:52 | 10.29408 | 86.19954 | 34856 ft | 457 kts | 115° |
| 2026-05-07 17:52 | 10.26746 | 86.25815 | 34858 ft | 457 kts | 115° |
| 2026-05-07 17:53 | 10.24086 | 86.31669 | 34857 ft | 457 kts | 115° |
| 2026-05-07 17:53 | 10.21440 | 86.37489 | 34858 ft | 456 kts | 115° |
| 2026-05-07 17:54 | 10.18775 | 86.43348 | 34857 ft | 456 kts | 115° |
| 2026-05-07 17:54 | 10.16108 | 86.49206 | 34856 ft | 456 kts | 115° |
| 2026-05-07 17:55 | 10.13447 | 86.55049 | 34860 ft | 456 kts | 115° |
| 2026-05-07 17:55 | 10.10795 | 86.60869 | 34856 ft | 457 kts | 115° |
| 2026-05-07 17:56 | 10.08131 | 86.66710 | 34858 ft | 457 kts | 115° |
| 2026-05-07 17:56 | 10.05456 | 86.72574 | 34858 ft | 457 kts | 115° |
| 2026-05-07 17:57 | 10.03236 | 86.77438 | 34858 ft | 457 kts | 115° |
| 2026-05-07 17:57 | 10.00110 | 86.84285 | 34858 ft | 457 kts | 115° |
| 2026-05-07 17:58 | 9.97434 | 86.90141 | 34858 ft | 457 kts | 115° |
| 2026-05-07 17:58 | 9.94771 | 86.95966 | 34859 ft | 457 kts | 115° |
| 2026-05-07 17:59 | 9.92094 | 87.01817 | 34857 ft | 457 kts | 115° |
| 2026-05-07 17:59 | 9.89414 | 87.07673 | 34858 ft | 457 kts | 115° |
| 2026-05-07 18:00 | 9.86735 | 87.13525 | 34857 ft | 457 kts | 115° |
| 2026-05-07 18:00 | 9.84070 | 87.19341 | 34857 ft | 456 kts | 115° |
| 2026-05-07 18:01 | 9.81396 | 87.25176 | 34854 ft | 456 kts | 115° |
| 2026-05-07 18:01 | 9.78725 | 87.31001 | 34855 ft | 456 kts | 115° |
| 2026-05-07 18:02 | 9.74750 | 87.39761 | 34854 ft | 455 kts | 114° |
| 2026-05-07 18:03 | 9.72171 | 87.45625 | 34855 ft | 455 kts | 114° |
| 2026-05-07 18:03 | 9.69608 | 87.51456 | 34854 ft | 455 kts | 114° |
| 2026-05-07 18:04 | 9.67026 | 87.57309 | 34855 ft | 455 kts | 114° |
| 2026-05-07 18:04 | 9.64440 | 87.63158 | 34855 ft | 455 kts | 114° |
| 2026-05-07 18:05 | 9.61849 | 87.69010 | 34857 ft | 455 kts | 114° |
| 2026-05-07 18:05 | 9.59260 | 87.74854 | 34855 ft | 455 kts | 114° |
| 2026-05-07 18:06 | 9.56666 | 87.80709 | 34854 ft | 455 kts | 114° |
| 2026-05-07 18:06 | 9.54511 | 87.85570 | 34855 ft | 455 kts | 114° |
| 2026-05-07 18:07 | 9.51912 | 87.91429 | 34856 ft | 455 kts | 114° |
| 2026-05-07 18:07 | 9.49317 | 87.97277 | 34855 ft | 455 kts | 114° |
| 2026-05-07 18:08 | 9.46718 | 88.03130 | 34853 ft | 455 kts | 114° |
| 2026-05-07 18:08 | 9.44118 | 88.08983 | 34860 ft | 455 kts | 114° |
| 2026-05-07 18:09 | 9.41515 | 88.14839 | 34853 ft | 455 kts | 114° |
| 2026-05-07 18:09 | 9.38933 | 88.20645 | 34853 ft | 455 kts | 114° |
| 2026-05-07 18:10 | 9.36335 | 88.26484 | 34850 ft | 454 kts | 114° |
| 2026-05-07 18:10 | 9.33734 | 88.32328 | 34855 ft | 454 kts | 114° |
| 2026-05-07 18:11 | 9.31141 | 88.38150 | 34854 ft | 453 kts | 114° |
| 2026-05-07 18:11 | 9.28546 | 88.43972 | 34851 ft | 453 kts | 114° |
| 2026-05-07 18:12 | 9.25972 | 88.49747 | 34851 ft | 453 kts | 114° |
| 2026-05-07 18:12 | 9.23382 | 88.55553 | 34853 ft | 452 kts | 114° |
| 2026-05-07 18:13 | 9.20788 | 88.61366 | 34852 ft | 452 kts | 114° |
| 2026-05-07 18:13 | 9.18195 | 88.67172 | 34852 ft | 453 kts | 114° |
| 2026-05-07 18:14 | 9.15612 | 88.72953 | 34854 ft | 453 kts | 114° |
| 2026-05-07 18:14 | 9.13009 | 88.78778 | 34852 ft | 453 kts | 114° |
| 2026-05-07 18:15 | 9.10425 | 88.84556 | 34853 ft | 453 kts | 114° |
| 2026-05-07 18:15 | 9.07820 | 88.90378 | 34855 ft | 454 kts | 113° |
| 2026-05-07 18:16 | 9.05213 | 88.96202 | 34852 ft | 454 kts | 113° |
| 2026-05-07 18:16 | 9.02608 | 89.02017 | 34853 ft | 454 kts | 113° |
| 2026-05-07 18:17 | 8.99997 | 89.07846 | 34854 ft | 454 kts | 113° |
| 2026-05-07 18:17 | 8.97388 | 89.13665 | 34854 ft | 454 kts | 113° |
| 2026-05-07 18:18 | 8.94796 | 89.19444 | 34854 ft | 454 kts | 113° |
| 2026-05-07 18:18 | 8.92183 | 89.25267 | 34855 ft | 454 kts | 113° |
| 2026-05-07 18:19 | 8.89576 | 89.31074 | 34853 ft | 453 kts | 113° |
| 2026-05-07 18:19 | 8.86967 | 89.36881 | 34854 ft | 453 kts | 113° |
| 2026-05-07 18:20 | 8.84359 | 89.42684 | 34854 ft | 453 kts | 113° |
| 2026-05-07 18:20 | 8.81757 | 89.48472 | 34854 ft | 452 kts | 113° |
| 2026-05-07 18:21 | 8.79146 | 89.54275 | 34850 ft | 452 kts | 113° |
| 2026-05-07 18:21 | 8.76541 | 89.60065 | 34852 ft | 452 kts | 113° |
| 2026-05-07 18:22 | 8.73955 | 89.65807 | 34852 ft | 451 kts | 113° |
| 2026-05-07 18:22 | 8.71352 | 89.71586 | 34856 ft | 452 kts | 113° |
| 2026-05-07 18:23 | 8.68741 | 89.77380 | 34856 ft | 452 kts | 113° |
| 2026-05-07 18:23 | 8.66127 | 89.83175 | 34857 ft | 454 kts | 113° |
| 2026-05-07 18:24 | 8.63503 | 89.88993 | 34856 ft | 455 kts | 113° |
| 2026-05-07 18:24 | 8.60885 | 89.94794 | 34855 ft | 457 kts | 113° |
| 2026-05-07 18:25 | 8.58245 | 90.00641 | 34852 ft | 458 kts | 113° |
| 2026-05-07 18:25 | 8.55600 | 90.06495 | 34853 ft | 458 kts | 113° |
| 2026-05-07 18:26 | 8.52950 | 90.12358 | 34851 ft | 459 kts | 113° |
| 2026-05-07 18:26 | 8.50297 | 90.18225 | 34852 ft | 458 kts | 113° |
| 2026-05-07 18:27 | 8.47649 | 90.24078 | 34851 ft | 458 kts | 113° |
| 2026-05-07 18:27 | 8.45018 | 90.29891 | 34851 ft | 457 kts | 113° |
| 2026-05-07 18:28 | 8.42376 | 90.35725 | 34853 ft | 456 kts | 113° |
| 2026-05-07 18:28 | 8.39739 | 90.41547 | 34847 ft | 456 kts | 114° |
| 2026-05-07 18:29 | 8.37098 | 90.47373 | 34854 ft | 455 kts | 114° |
| 2026-05-07 18:29 | 8.34462 | 90.53186 | 34852 ft | 455 kts | 114° |
| 2026-05-07 18:30 | 8.31836 | 90.58976 | 34852 ft | 455 kts | 113° |
| 2026-05-07 18:30 | 8.29198 | 90.64787 | 34854 ft | 456 kts | 113° |
| 2026-05-07 18:31 | 8.26556 | 90.70607 | 34854 ft | 456 kts | 113° |
| 2026-05-07 18:31 | 8.23910 | 90.76432 | 34852 ft | 457 kts | 113° |
| 2026-05-07 18:32 | 8.21272 | 90.82236 | 34854 ft | 457 kts | 113° |
| 2026-05-07 18:32 | 8.18620 | 90.88069 | 34853 ft | 458 kts | 113° |
| 2026-05-07 18:33 | 8.15959 | 90.93919 | 34850 ft | 458 kts | 114° |
| 2026-05-07 18:33 | 8.13294 | 90.99773 | 34848 ft | 459 kts | 114° |
| 2026-05-07 18:34 | 8.10625 | 91.05637 | 34851 ft | 459 kts | 114° |
| 2026-05-07 18:34 | 8.07959 | 91.11489 | 34849 ft | 459 kts | 114° |
| 2026-05-07 18:35 | 8.05304 | 91.17316 | 34852 ft | 459 kts | 114° |
| 2026-05-07 18:35 | 8.02631 | 91.23180 | 34849 ft | 459 kts | 114° |
| 2026-05-07 18:36 | 7.99959 | 91.29039 | 34844 ft | 459 kts | 114° |
| 2026-05-07 18:36 | 7.97289 | 91.34890 | 34839 ft | 458 kts | 114° |
| 2026-05-07 18:37 | 7.94640 | 91.40693 | 34853 ft | 458 kts | 114° |
| 2026-05-07 18:37 | 7.91977 | 91.46524 | 34852 ft | 457 kts | 114° |
| 2026-05-07 18:38 | 7.89313 | 91.52355 | 34843 ft | 457 kts | 114° |
| 2026-05-07 18:38 | 7.86650 | 91.58182 | 34844 ft | 457 kts | 114° |
| 2026-05-07 18:39 | 7.83992 | 91.63998 | 34855 ft | 456 kts | 114° |
| 2026-05-07 18:39 | 7.81343 | 91.69814 | 34849 ft | 456 kts | 113° |
| 2026-05-07 18:40 | 7.78760 | 91.75661 | 34842 ft | 456 kts | 113° |
| 2026-05-07 18:40 | 7.76191 | 91.81523 | 34851 ft | 456 kts | 113° |
| 2026-05-07 18:41 | 7.73619 | 91.87374 | 34848 ft | 456 kts | 113° |
| 2026-05-07 18:41 | 7.71059 | 91.93178 | 34839 ft | 456 kts | 113° |
| 2026-05-07 18:42 | 7.68474 | 91.99032 | 34851 ft | 457 kts | 113° |
| 2026-05-07 18:42 | 7.65912 | 92.04833 | 34852 ft | 457 kts | 113° |
| 2026-05-07 18:43 | 7.63322 | 92.10693 | 34849 ft | 458 kts | 113° |
| 2026-05-07 18:43 | 7.60724 | 92.16568 | 34839 ft | 458 kts | 113° |
| 2026-05-07 18:44 | 7.58129 | 92.22437 | 34841 ft | 458 kts | 114° |
| 2026-05-07 18:44 | 7.55546 | 92.28275 | 34854 ft | 459 kts | 114° |
| 2026-05-07 18:45 | 7.52943 | 92.34154 | 34854 ft | 459 kts | 114° |
| 2026-05-07 18:45 | 7.50338 | 92.40037 | 34843 ft | 459 kts | 114° |
| 2026-05-07 18:46 | 7.47728 | 92.45929 | 34851 ft | 459 kts | 114° |
| 2026-05-07 18:46 | 7.45124 | 92.51803 | 34846 ft | 459 kts | 114° |
| 2026-05-07 18:47 | 7.42534 | 92.57645 | 34843 ft | 459 kts | 114° |
| 2026-05-07 18:47 | 7.39926 | 92.63523 | 34846 ft | 459 kts | 114° |
| 2026-05-07 18:48 | 7.37302 | 92.69437 | 34850 ft | 459 kts | 114° |
| 2026-05-07 18:48 | 7.34715 | 92.75264 | 34847 ft | 459 kts | 114° |
| 2026-05-07 18:49 | 7.32113 | 92.81124 | 34852 ft | 458 kts | 114° |
| 2026-05-07 18:49 | 7.29503 | 92.86998 | 34846 ft | 458 kts | 114° |
| 2026-05-07 18:50 | 7.26899 | 92.92856 | 34840 ft | 458 kts | 114° |
| 2026-05-07 18:50 | 7.24312 | 92.98673 | 34842 ft | 458 kts | 114° |
| 2026-05-07 18:51 | 7.21706 | 93.04532 | 34853 ft | 457 kts | 114° |
| 2026-05-07 18:51 | 7.19104 | 93.10377 | 34847 ft | 458 kts | 114° |
| 2026-05-07 18:52 | 7.16500 | 93.16227 | 34851 ft | 458 kts | 114° |
| 2026-05-07 18:52 | 7.13906 | 93.22051 | 34843 ft | 458 kts | 114° |
| 2026-05-07 18:53 | 7.11299 | 93.27903 | 34853 ft | 458 kts | 114° |
| 2026-05-07 18:53 | 7.08686 | 93.33765 | 34844 ft | 458 kts | 114° |
| 2026-05-07 18:54 | 7.06076 | 93.39618 | 34843 ft | 458 kts | 114° |
| 2026-05-07 18:54 | 7.03900 | 93.44497 | 34850 ft | 459 kts | 114° |
| 2026-05-07 18:55 | 7.01285 | 93.50357 | 34846 ft | 459 kts | 114° |
| 2026-05-07 18:55 | 6.98665 | 93.56225 | 34847 ft | 459 kts | 114° |
| 2026-05-07 18:56 | 6.96061 | 93.62057 | 34844 ft | 459 kts | 114° |
| 2026-05-07 18:56 | 6.93440 | 93.67923 | 34846 ft | 459 kts | 114° |
| 2026-05-07 18:57 | 6.90818 | 93.73791 | 34847 ft | 459 kts | 114° |
| 2026-05-07 18:57 | 6.88198 | 93.79651 | 34848 ft | 459 kts | 114° |
| 2026-05-07 18:58 | 6.85577 | 93.85510 | 34850 ft | 459 kts | 114° |
| 2026-05-07 18:58 | 6.82968 | 93.91342 | 34853 ft | 459 kts | 114° |
| 2026-05-07 18:59 | 6.80349 | 93.97195 | 34850 ft | 459 kts | 114° |
| 2026-05-07 18:59 | 6.77725 | 94.03055 | 34848 ft | 459 kts | 114° |
| 2026-05-07 19:00 | 6.75105 | 94.08903 | 34845 ft | 459 kts | 114° |
| 2026-05-07 19:00 | 6.72479 | 94.14765 | 34849 ft | 458 kts | 114° |
| 2026-05-07 19:01 | 6.69872 | 94.20581 | 34845 ft | 458 kts | 114° |
| 2026-05-07 19:01 | 6.67256 | 94.26416 | 34846 ft | 458 kts | 114° |
| 2026-05-07 19:02 | 6.64639 | 94.32251 | 34844 ft | 457 kts | 114° |
| 2026-05-07 19:02 | 6.62027 | 94.38072 | 34841 ft | 456 kts | 114° |
| 2026-05-07 19:03 | 6.59309 | 94.43830 | 34843 ft | 455 kts | 118° |
| 2026-05-07 19:03 | 6.56228 | 94.49390 | 34846 ft | 454 kts | 119° |
| 2026-05-07 19:04 | 6.53110 | 94.54912 | 34845 ft | 454 kts | 119° |
| 2026-05-07 19:04 | 6.50032 | 94.60424 | 34843 ft | 453 kts | 118° |
| 2026-05-07 19:05 | 6.46958 | 94.65967 | 34841 ft | 453 kts | 118° |
| 2026-05-07 19:05 | 6.43886 | 94.71516 | 34842 ft | 453 kts | 118° |
| 2026-05-07 19:06 | 6.40815 | 94.77060 | 34838 ft | 454 kts | 118° |
| 2026-05-07 19:06 | 6.36201 | 94.85384 | 34841 ft | 455 kts | 118° |
| 2026-05-07 19:07 | 6.33116 | 94.90947 | 34845 ft | 455 kts | 118° |
| 2026-05-07 19:07 | 6.30045 | 94.96482 | 34835 ft | 456 kts | 119° |
| 2026-05-07 19:08 | 6.26954 | 95.02055 | 34841 ft | 456 kts | 119° |
| 2026-05-07 19:08 | 6.23858 | 95.07632 | 34844 ft | 456 kts | 119° |
| 2026-05-07 19:09 | 6.20790 | 95.13175 | 34843 ft | 456 kts | 118° |
| 2026-05-07 19:09 | 6.17709 | 95.18757 | 34835 ft | 456 kts | 118° |
| 2026-05-07 19:10 | 6.14625 | 95.24342 | 34843 ft | 456 kts | 118° |
| 2026-05-07 19:10 | 6.11542 | 95.29923 | 34836 ft | 456 kts | 118° |
| 2026-05-07 19:11 | 6.08462 | 95.35494 | 34835 ft | 456 kts | 118° |
| 2026-05-07 19:11 | 6.05386 | 95.41058 | 34838 ft | 455 kts | 118° |
| 2026-05-07 19:12 | 6.02329 | 95.46587 | 34839 ft | 455 kts | 118° |
| 2026-05-07 19:12 | 5.99258 | 95.52148 | 34839 ft | 455 kts | 118° |
| 2026-05-07 19:13 | 5.96241 | 95.57735 | 34835 ft | 455 kts | 118° |
| 2026-05-07 19:13 | 5.93242 | 95.63337 | 34836 ft | 455 kts | 118° |
| 2026-05-07 19:14 | 5.90244 | 95.68925 | 34835 ft | 454 kts | 118° |
| 2026-05-07 19:14 | 5.87233 | 95.74526 | 34829 ft | 455 kts | 118° |
| 2026-05-07 19:15 | 5.84241 | 95.80083 | 34840 ft | 455 kts | 118° |
| 2026-05-07 19:15 | 5.81229 | 95.85677 | 34837 ft | 455 kts | 118° |
| 2026-05-07 19:16 | 5.78216 | 95.91271 | 34838 ft | 456 kts | 118° |
| 2026-05-07 19:16 | 5.75195 | 95.96876 | 34839 ft | 456 kts | 118° |
| 2026-05-07 19:17 | 5.72174 | 96.02482 | 34841 ft | 457 kts | 118° |
| 2026-05-07 19:17 | 5.69165 | 96.08064 | 34838 ft | 457 kts | 118° |
| 2026-05-07 19:18 | 5.66134 | 96.13684 | 34828 ft | 458 kts | 118° |
| 2026-05-07 19:18 | 5.63103 | 96.19303 | 34839 ft | 458 kts | 118° |
| 2026-05-07 19:19 | 5.60059 | 96.24947 | 34841 ft | 459 kts | 118° |
| 2026-05-07 19:19 | 5.57012 | 96.30591 | 34836 ft | 460 kts | 118° |
| 2026-05-07 19:20 | 5.53959 | 96.36248 | 34838 ft | 460 kts | 118° |
| 2026-05-07 19:20 | 5.50924 | 96.41868 | 34836 ft | 461 kts | 118° |
| 2026-05-07 19:21 | 5.47866 | 96.47529 | 34832 ft | 461 kts | 118° |
| 2026-05-07 19:21 | 5.44805 | 96.53193 | 34841 ft | 461 kts | 118° |
| 2026-05-07 19:22 | 5.41766 | 96.58818 | 34838 ft | 461 kts | 118° |
| 2026-05-07 19:22 | 5.38708 | 96.64473 | 34841 ft | 460 kts | 118° |
| 2026-05-07 19:23 | 5.35656 | 96.70119 | 34840 ft | 460 kts | 118° |
| 2026-05-07 19:23 | 5.32603 | 96.75763 | 34837 ft | 459 kts | 118° |
| 2026-05-07 19:24 | 5.29556 | 96.81396 | 34837 ft | 459 kts | 118° |
| 2026-05-07 19:24 | 5.26502 | 96.87038 | 34854 ft | 458 kts | 118° |
| 2026-05-07 19:25 | 5.23463 | 96.92653 | 34850 ft | 458 kts | 118° |
| 2026-05-07 19:25 | 5.20447 | 96.98222 | 34851 ft | 457 kts | 118° |
| 2026-05-07 19:26 | 5.17421 | 97.03810 | 34841 ft | 456 kts | 118° |
| 2026-05-07 19:26 | 5.14391 | 97.09402 | 34847 ft | 455 kts | 118° |
| 2026-05-07 19:27 | 5.11365 | 97.14988 | 34850 ft | 455 kts | 118° |
| 2026-05-07 19:27 | 5.08345 | 97.20559 | 34852 ft | 455 kts | 118° |
| 2026-05-07 19:28 | 5.05324 | 97.26131 | 34849 ft | 455 kts | 118° |
| 2026-05-07 19:28 | 5.02298 | 97.31712 | 34843 ft | 455 kts | 118° |
| 2026-05-07 19:29 | 4.99287 | 97.37262 | 34840 ft | 455 kts | 118° |
| 2026-05-07 19:29 | 4.96254 | 97.42853 | 34855 ft | 456 kts | 118° |
| 2026-05-07 19:30 | 4.93225 | 97.48435 | 34858 ft | 456 kts | 118° |
| 2026-05-07 19:30 | 4.90191 | 97.54024 | 34857 ft | 457 kts | 118° |
| 2026-05-07 19:31 | 4.87169 | 97.59589 | 34845 ft | 457 kts | 118° |
| 2026-05-07 19:31 | 4.84126 | 97.65193 | 34846 ft | 458 kts | 118° |
| 2026-05-07 19:32 | 4.81072 | 97.70814 | 34857 ft | 458 kts | 118° |
| 2026-05-07 19:32 | 4.78021 | 97.76430 | 34847 ft | 459 kts | 118° |
| 2026-05-07 19:33 | 4.74959 | 97.82064 | 34846 ft | 459 kts | 118° |
| 2026-05-07 19:33 | 4.71899 | 97.87694 | 34848 ft | 459 kts | 118° |
| 2026-05-07 19:34 | 4.68862 | 97.93278 | 34839 ft | 459 kts | 118° |
| 2026-05-07 19:34 | 4.65801 | 97.98907 | 34840 ft | 459 kts | 118° |
| 2026-05-07 19:35 | 4.62744 | 98.04528 | 34834 ft | 459 kts | 118° |
| 2026-05-07 19:35 | 4.59681 | 98.10157 | 34835 ft | 458 kts | 118° |
| 2026-05-07 19:36 | 4.56626 | 98.15770 | 34832 ft | 457 kts | 118° |
| 2026-05-07 19:36 | 4.53604 | 98.21322 | 34830 ft | 457 kts | 118° |
| 2026-05-07 19:37 | 4.50540 | 98.26948 | 34832 ft | 456 kts | 118° |
| 2026-05-07 19:37 | 4.47517 | 98.32499 | 34828 ft | 456 kts | 118° |
| 2026-05-07 19:38 | 4.44474 | 98.38085 | 34829 ft | 456 kts | 118° |
| 2026-05-07 19:38 | 4.41450 | 98.43636 | 34827 ft | 455 kts | 118° |
| 2026-05-07 19:39 | 4.38414 | 98.49207 | 34827 ft | 455 kts | 118° |
| 2026-05-07 19:39 | 4.35870 | 98.53874 | 34825 ft | 455 kts | 118° |
| 2026-05-07 19:40 | 4.32340 | 98.60349 | 34826 ft | 456 kts | 118° |
| 2026-05-07 19:40 | 4.29299 | 98.65926 | 34834 ft | 456 kts | 118° |
| 2026-05-07 19:41 | 4.26770 | 98.70563 | 34835 ft | 456 kts | 118° |
| 2026-05-07 19:41 | 4.23724 | 98.76146 | 34835 ft | 456 kts | 118° |
| 2026-05-07 19:42 | 4.20679 | 98.81726 | 34831 ft | 456 kts | 117° |
| 2026-05-07 19:42 | 4.17633 | 98.87308 | 34833 ft | 456 kts | 118° |
| 2026-05-07 19:43 | 4.14602 | 98.92861 | 34832 ft | 456 kts | 118° |
| 2026-05-07 19:43 | 4.11556 | 98.98440 | 34834 ft | 456 kts | 118° |
| 2026-05-07 19:44 | 4.08509 | 99.04020 | 34832 ft | 456 kts | 118° |
| 2026-05-07 19:44 | 4.05467 | 99.09588 | 34830 ft | 456 kts | 118° |
| 2026-05-07 19:45 | 4.02424 | 99.15159 | 34827 ft | 456 kts | 118° |
| 2026-05-07 19:45 | 3.99379 | 99.20731 | 34832 ft | 456 kts | 118° |
| 2026-05-07 19:46 | 3.96338 | 99.26296 | 34831 ft | 456 kts | 118° |
| 2026-05-07 19:46 | 3.93286 | 99.31879 | 34831 ft | 456 kts | 118° |
| 2026-05-07 19:47 | 3.90237 | 99.37455 | 34832 ft | 457 kts | 118° |
| 2026-05-07 19:47 | 3.87206 | 99.42999 | 34831 ft | 457 kts | 118° |
| 2026-05-07 19:48 | 3.84146 | 99.48593 | 34831 ft | 457 kts | 118° |
| 2026-05-07 19:48 | 3.81090 | 99.54179 | 34830 ft | 457 kts | 118° |
| 2026-05-07 19:49 | 3.78033 | 99.59766 | 34831 ft | 457 kts | 118° |
| 2026-05-07 19:49 | 3.74979 | 99.65347 | 34822 ft | 457 kts | 118° |
| 2026-05-07 19:50 | 3.71944 | 99.70892 | 34827 ft | 457 kts | 118° |
| 2026-05-07 19:50 | 3.68889 | 99.76473 | 34826 ft | 457 kts | 118° |
| 2026-05-07 19:51 | 3.65838 | 99.82044 | 34828 ft | 457 kts | 118° |
| 2026-05-07 19:51 | 3.62785 | 99.87619 | 34833 ft | 457 kts | 118° |
| 2026-05-07 19:52 | 3.59731 | 99.93194 | 34827 ft | 457 kts | 118° |
| 2026-05-07 19:52 | 3.56678 | 99.98768 | 34833 ft | 457 kts | 118° |
| 2026-05-07 19:53 | 3.53637 | 100.04318 | 34833 ft | 457 kts | 118° |
| 2026-05-07 19:53 | 3.50581 | 100.09894 | 34834 ft | 457 kts | 118° |
| 2026-05-07 19:54 | 3.47522 | 100.15476 | 34842 ft | 458 kts | 118° |
| 2026-05-07 19:54 | 3.44458 | 100.21066 | 34824 ft | 458 kts | 118° |
| 2026-05-07 19:55 | 3.41389 | 100.26664 | 34826 ft | 458 kts | 118° |
| 2026-05-07 19:55 | 3.38436 | 100.32319 | 34830 ft | 457 kts | 115° |
| 2026-05-07 19:56 | 3.35761 | 100.38091 | 34832 ft | 457 kts | 114° |
| 2026-05-07 19:56 | 3.33129 | 100.43843 | 34827 ft | 457 kts | 114° |
| 2026-05-07 19:57 | 3.30453 | 100.49612 | 34826 ft | 457 kts | 114° |
| 2026-05-07 19:57 | 3.27759 | 100.55376 | 34830 ft | 457 kts | 114° |
| 2026-05-07 19:58 | 3.25064 | 100.61131 | 34829 ft | 456 kts | 115° |
| 2026-05-07 19:58 | 3.22386 | 100.66852 | 34831 ft | 456 kts | 115° |
| 2026-05-07 19:59 | 3.19678 | 100.72638 | 34830 ft | 456 kts | 115° |
| 2026-05-07 19:59 | 3.16984 | 100.78394 | 34832 ft | 456 kts | 115° |
| 2026-05-07 20:00 | 3.14307 | 100.84113 | 34834 ft | 456 kts | 115° |
| 2026-05-07 20:00 | 3.11614 | 100.89865 | 34834 ft | 457 kts | 115° |
| 2026-05-07 20:01 | 3.08918 | 100.95623 | 34831 ft | 457 kts | 115° |
| 2026-05-07 20:01 | 3.06239 | 101.01394 | 34831 ft | 457 kts | 114° |
| 2026-05-07 20:02 | 3.04912 | 101.04302 | 34521 ft | 463 kts | 114° |
| 2026-05-07 20:02 | 3.03568 | 101.07242 | 33965 ft | 464 kts | 114° |
| 2026-05-07 20:02 | 3.02148 | 101.10137 | 33251 ft | 465 kts | 121° |
| 2026-05-07 20:02 | 3.00205 | 101.12727 | 32549 ft | 466 kts | 132° |
| 2026-05-07 20:03 | 2.97856 | 101.14915 | 31713 ft | 471 kts | 141° |
| 2026-05-07 20:03 | 2.95050 | 101.16703 | 30963 ft | 475 kts | 150° |
| 2026-05-07 20:03 | 2.92130 | 101.18248 | 30425 ft | 472 kts | 151° |
| 2026-05-07 20:03 | 2.89256 | 101.19734 | 29880 ft | 469 kts | 151° |
| 2026-05-07 20:04 | 2.86371 | 101.21227 | 29283 ft | 465 kts | 151° |
| 2026-05-07 20:04 | 2.83509 | 101.22723 | 28727 ft | 460 kts | 150° |
| 2026-05-07 20:04 | 2.80683 | 101.24215 | 28189 ft | 456 kts | 150° |
| 2026-05-07 20:04 | 2.77898 | 101.25697 | 27669 ft | 451 kts | 150° |
| 2026-05-07 20:05 | 2.75135 | 101.27175 | 27156 ft | 447 kts | 150° |
| 2026-05-07 20:05 | 2.72408 | 101.28635 | 26649 ft | 442 kts | 150° |
| 2026-05-07 20:05 | 2.69740 | 101.30065 | 26164 ft | 439 kts | 150° |
| 2026-05-07 20:05 | 2.67060 | 101.31502 | 25649 ft | 435 kts | 150° |
| 2026-05-07 20:06 | 2.64393 | 101.32930 | 25135 ft | 432 kts | 150° |
| 2026-05-07 20:06 | 2.61752 | 101.34345 | 24641 ft | 430 kts | 150° |
| 2026-05-07 20:06 | 2.59120 | 101.35754 | 24142 ft | 427 kts | 150° |
| 2026-05-07 20:06 | 2.57385 | 101.36683 | 23810 ft | 426 kts | 150° |
| 2026-05-07 20:07 | 2.53897 | 101.38549 | 23087 ft | 423 kts | 150° |
| 2026-05-07 20:07 | 2.51314 | 101.39931 | 22554 ft | 420 kts | 150° |
| 2026-05-07 20:07 | 2.48743 | 101.41307 | 22048 ft | 416 kts | 150° |
| 2026-05-07 20:07 | 2.46228 | 101.42653 | 21559 ft | 412 kts | 150° |
| 2026-05-07 20:08 | 2.43716 | 101.43997 | 21076 ft | 408 kts | 150° |
| 2026-05-07 20:08 | 2.41222 | 101.45331 | 20610 ft | 405 kts | 150° |
| 2026-05-07 20:08 | 2.38749 | 101.46655 | 20132 ft | 402 kts | 150° |
| 2026-05-07 20:08 | 2.36291 | 101.47970 | 19657 ft | 399 kts | 150° |
| 2026-05-07 20:09 | 2.33848 | 101.49278 | 19178 ft | 396 kts | 150° |
| 2026-05-07 20:09 | 2.31420 | 101.50577 | 18703 ft | 394 kts | 150° |
| 2026-05-07 20:09 | 2.29011 | 101.51866 | 18233 ft | 392 kts | 150° |
| 2026-05-07 20:10 | 2.24231 | 101.54423 | 17234 ft | 386 kts | 150° |
| 2026-05-07 20:10 | 2.21985 | 101.55857 | 16741 ft | 381 kts | 135° |
| 2026-05-07 20:10 | 2.20354 | 101.57891 | 16320 ft | 374 kts | 118° |
| 2026-05-07 20:10 | 2.19370 | 101.60281 | 15883 ft | 369 kts | 107° |
| 2026-05-07 20:11 | 2.18641 | 101.62721 | 15448 ft | 366 kts | 105° |
| 2026-05-07 20:11 | 2.17940 | 101.65166 | 15021 ft | 363 kts | 105° |
| 2026-05-07 20:11 | 2.17253 | 101.67556 | 14585 ft | 361 kts | 105° |
| 2026-05-07 20:11 | 2.16552 | 101.69955 | 14142 ft | 359 kts | 105° |
| 2026-05-07 20:12 | 2.15843 | 101.72348 | 13682 ft | 358 kts | 105° |
| 2026-05-07 20:12 | 2.15130 | 101.74730 | 13200 ft | 357 kts | 106° |
| 2026-05-07 20:12 | 2.14418 | 101.77099 | 12744 ft | 354 kts | 106° |
| 2026-05-07 20:12 | 2.13711 | 101.79450 | 12307 ft | 351 kts | 106° |
| 2026-05-07 20:13 | 2.13008 | 101.81782 | 11880 ft | 349 kts | 106° |
| 2026-05-07 20:13 | 2.12311 | 101.84099 | 11451 ft | 346 kts | 106° |
| 2026-05-07 20:13 | 2.11631 | 101.86397 | 11040 ft | 344 kts | 103° |
| 2026-05-07 20:13 | 2.11508 | 101.88757 | 10727 ft | 338 kts | 80° |
| 2026-05-07 20:14 | 2.12252 | 101.90934 | 10581 ft | 329 kts | 63° |
| 2026-05-07 20:14 | 2.13580 | 101.92754 | 10414 ft | 322 kts | 44° |
| 2026-05-07 20:14 | 2.15296 | 101.94150 | 10290 ft | 313 kts | 37° |
| 2026-05-07 20:14 | 2.17016 | 101.95402 | 10145 ft | 305 kts | 37° |
| 2026-05-07 20:15 | 2.18707 | 101.96631 | 10021 ft | 296 kts | 37° |
| 2026-05-07 20:15 | 2.20348 | 101.97843 | 9892 ft | 288 kts | 37° |
| 2026-05-07 20:15 | 2.21940 | 101.99028 | 9713 ft | 284 kts | 38° |
| 2026-05-07 20:15 | 2.23520 | 102.00210 | 9427 ft | 282 kts | 37° |
| 2026-05-07 20:16 | 2.25248 | 102.01105 | 9115 ft | 282 kts | 12° |
| 2026-05-07 20:16 | 2.27184 | 102.01089 | 8856 ft | 280 kts | 345° |
| 2026-05-07 20:16 | 2.28927 | 102.00312 | 8601 ft | 277 kts | 327° |
| 2026-05-07 20:16 | 2.30529 | 101.99250 | 8342 ft | 275 kts | 325° |
| 2026-05-07 20:17 | 2.32092 | 101.98174 | 8125 ft | 272 kts | 325° |
| 2026-05-07 20:17 | 2.33650 | 101.97104 | 7851 ft | 271 kts | 325° |
| 2026-05-07 20:17 | 2.35206 | 101.96043 | 7590 ft | 270 kts | 325° |
| 2026-05-07 20:17 | 2.36759 | 101.94991 | 7318 ft | 269 kts | 325° |
| 2026-05-07 20:18 | 2.38304 | 101.93951 | 7133 ft | 264 kts | 325° |
| 2026-05-07 20:18 | 2.39796 | 101.92949 | 6987 ft | 259 kts | 325° |
| 2026-05-07 20:18 | 2.41274 | 101.91959 | 6859 ft | 252 kts | 325° |
| 2026-05-07 20:18 | 2.42710 | 101.90996 | 6750 ft | 245 kts | 325° |
| 2026-05-07 20:19 | 2.44111 | 101.90057 | 6637 ft | 239 kts | 325° |
| 2026-05-07 20:19 | 2.45586 | 101.89309 | 6376 ft | 240 kts | 349° |
| 2026-05-07 20:19 | 2.47234 | 101.89472 | 6160 ft | 240 kts | 24° |
| 2026-05-07 20:19 | 2.48548 | 101.90460 | 5916 ft | 243 kts | 47° |
| 2026-05-07 20:20 | 2.49938 | 101.91444 | 5439 ft | 248 kts | 11° |
| 2026-05-07 20:20 | 2.51563 | 101.91281 | 5418 ft | 232 kts | 328° |
| 2026-05-07 20:20 | 2.52652 | 101.90146 | 5262 ft | 231 kts | 297° |
| 2026-05-07 20:20 | 2.53453 | 101.88731 | 5006 ft | 237 kts | 301° |
| 2026-05-07 20:21 | 2.54092 | 101.87836 | 4821 ft | 239 kts | 307° |
| 2026-05-07 20:21 | 2.55211 | 101.86611 | 4576 ft | 240 kts | 315° |
| 2026-05-07 20:21 | 2.56929 | 101.85193 | 4343 ft | 234 kts | 317° |
| 2026-05-07 20:21 | 2.58140 | 101.84108 | 4316 ft | 232 kts | 317° |
| 2026-05-07 20:22 | 2.59362 | 101.83058 | 4313 ft | 232 kts | 319° |
| 2026-05-07 20:22 | 2.60622 | 101.82050 | 4297 ft | 231 kts | 321° |
| 2026-05-07 20:22 | 2.61882 | 101.81096 | 4299 ft | 229 kts | 322° |
| 2026-05-07 20:22 | 2.63172 | 101.80155 | 4309 ft | 229 kts | 323° |
| 2026-05-07 20:23 | 2.64474 | 101.79234 | 4307 ft | 230 kts | 324° |
| 2026-05-07 20:23 | 2.65787 | 101.78321 | 4300 ft | 230 kts | 324° |
| 2026-05-07 20:23 | 2.67107 | 101.77414 | 4302 ft | 230 kts | 324° |
| 2026-05-07 20:23 | 2.68431 | 101.76513 | 4308 ft | 231 kts | 325° |
| 2026-05-07 20:24 | 2.69767 | 101.75610 | 4301 ft | 231 kts | 325° |
| 2026-05-07 20:24 | 2.71106 | 101.74710 | 4306 ft | 232 kts | 325° |
| 2026-05-07 20:24 | 2.72449 | 101.73808 | 4307 ft | 233 kts | 325° |
| 2026-05-07 20:24 | 2.73797 | 101.72903 | 4302 ft | 233 kts | 325° |
| 2026-05-07 20:25 | 2.75145 | 101.71999 | 4307 ft | 234 kts | 325° |
| 2026-05-07 20:25 | 2.76497 | 101.71093 | 4298 ft | 233 kts | 325° |
| 2026-05-07 20:25 | 2.77839 | 101.70193 | 4303 ft | 232 kts | 325° |
| 2026-05-07 20:25 | 2.78725 | 101.69599 | 4298 ft | 232 kts | 325° |
| 2026-05-07 20:26 | 2.80520 | 101.68396 | 4303 ft | 232 kts | 325° |
| 2026-05-07 20:26 | 2.81412 | 101.67798 | 4321 ft | 233 kts | 325° |
| 2026-05-07 20:26 | 2.83201 | 101.66597 | 4326 ft | 236 kts | 325° |
| 2026-05-07 20:26 | 2.84575 | 101.65673 | 4338 ft | 240 kts | 325° |
| 2026-05-07 20:27 | 2.85972 | 101.64733 | 4316 ft | 241 kts | 325° |
| 2026-05-07 20:27 | 2.87346 | 101.63806 | 4307 ft | 236 kts | 325° |
| 2026-05-07 20:27 | 2.88697 | 101.62894 | 4304 ft | 233 kts | 325° |
| 2026-05-07 20:27 | 2.90034 | 101.61993 | 4314 ft | 230 kts | 325° |
| 2026-05-07 20:28 | 2.90918 | 101.61397 | 4318 ft | 230 kts | 325° |
| 2026-05-07 20:28 | 2.91805 | 101.60801 | 4334 ft | 233 kts | 325° |
| 2026-05-07 20:28 | 2.94080 | 101.59270 | 4336 ft | 237 kts | 325° |
| 2026-05-07 20:28 | 2.94998 | 101.58650 | 4333 ft | 236 kts | 325° |
| 2026-05-07 20:29 | 2.96358 | 101.57733 | 4322 ft | 234 kts | 325° |
| 2026-05-07 20:29 | 2.97703 | 101.56823 | 4324 ft | 232 kts | 325° |
| 2026-05-07 20:29 | 2.99040 | 101.55919 | 4317 ft | 231 kts | 325° |
| 2026-05-07 20:29 | 3.00346 | 101.55033 | 4333 ft | 228 kts | 325° |
| 2026-05-07 20:30 | 3.01658 | 101.54140 | 4324 ft | 227 kts | 325° |
| 2026-05-07 20:30 | 3.02959 | 101.53253 | 4319 ft | 226 kts | 325° |
| 2026-05-07 20:30 | 3.04275 | 101.52356 | 4336 ft | 230 kts | 325° |
| 2026-05-07 20:30 | 3.05612 | 101.51447 | 4342 ft | 233 kts | 325° |
| 2026-05-07 20:31 | 3.06951 | 101.50534 | 4335 ft | 232 kts | 325° |
| 2026-05-07 20:31 | 3.08289 | 101.49622 | 4322 ft | 231 kts | 325° |
| 2026-05-07 20:31 | 3.09617 | 101.48716 | 4319 ft | 230 kts | 325° |
| 2026-05-07 20:31 | 3.10937 | 101.47813 | 4322 ft | 229 kts | 325° |
| 2026-05-07 20:32 | 3.12233 | 101.46929 | 4325 ft | 228 kts | 325° |
| 2026-05-07 20:32 | 3.13544 | 101.46034 | 4327 ft | 227 kts | 325° |
| 2026-05-07 20:32 | 3.14850 | 101.45144 | 4333 ft | 228 kts | 325° |
| 2026-05-07 20:32 | 3.16164 | 101.44249 | 4336 ft | 228 kts | 325° |
| 2026-05-07 20:33 | 3.17484 | 101.43350 | 4341 ft | 230 kts | 325° |
| 2026-05-07 20:33 | 3.18810 | 101.42444 | 4340 ft | 232 kts | 325° |
| 2026-05-07 20:33 | 3.20149 | 101.41531 | 4334 ft | 233 kts | 325° |
| 2026-05-07 20:33 | 3.21489 | 101.40616 | 4334 ft | 234 kts | 325° |
| 2026-05-07 20:34 | 3.22837 | 101.39694 | 4333 ft | 235 kts | 325° |
| 2026-05-07 20:34 | 3.24192 | 101.38771 | 4357 ft | 238 kts | 325° |
| 2026-05-07 20:34 | 3.25567 | 101.37833 | 4333 ft | 239 kts | 325° |
| 2026-05-07 20:34 | 3.26901 | 101.36918 | 4300 ft | 230 kts | 325° |
| 2026-05-07 20:35 | 3.28202 | 101.36030 | 4318 ft | 224 kts | 325° |
| 2026-05-07 20:35 | 3.29498 | 101.35146 | 4340 ft | 228 kts | 325° |
| 2026-05-07 20:35 | 3.30821 | 101.34244 | 4348 ft | 233 kts | 325° |
| 2026-05-07 20:35 | 3.32165 | 101.33327 | 4338 ft | 233 kts | 325° |
| 2026-05-07 20:36 | 3.33500 | 101.32415 | 4328 ft | 232 kts | 325° |
| 2026-05-07 20:36 | 3.34828 | 101.31508 | 4322 ft | 230 kts | 325° |
| 2026-05-07 20:36 | 3.36150 | 101.30606 | 4323 ft | 229 kts | 325° |
| 2026-05-07 20:36 | 3.37466 | 101.29710 | 4326 ft | 228 kts | 325° |
| 2026-05-07 20:37 | 3.38775 | 101.28828 | 4327 ft | 227 kts | 325° |
| 2026-05-07 20:37 | 3.40085 | 101.27955 | 4324 ft | 226 kts | 325° |
| 2026-05-07 20:37 | 3.41394 | 101.27082 | 4333 ft | 226 kts | 325° |
| 2026-05-07 20:37 | 3.42705 | 101.26206 | 4341 ft | 227 kts | 325° |
| 2026-05-07 20:38 | 3.44025 | 101.25322 | 4336 ft | 229 kts | 325° |
| 2026-05-07 20:38 | 3.45345 | 101.24432 | 4337 ft | 229 kts | 325° |
| 2026-05-07 20:38 | 3.46656 | 101.23548 | 4336 ft | 230 kts | 325° |
| 2026-05-07 20:38 | 3.47991 | 101.22654 | 4345 ft | 231 kts | 325° |
| 2026-05-07 20:39 | 3.49331 | 101.21754 | 4340 ft | 232 kts | 325° |
| 2026-05-07 20:39 | 3.50678 | 101.20855 | 4344 ft | 233 kts | 325° |
| 2026-05-07 20:39 | 3.52028 | 101.19956 | 4330 ft | 233 kts | 325° |
| 2026-05-07 20:39 | 3.53377 | 101.19057 | 4323 ft | 232 kts | 325° |
| 2026-05-07 20:40 | 3.54718 | 101.18161 | 4326 ft | 231 kts | 325° |
| 2026-05-07 20:40 | 3.56051 | 101.17271 | 4328 ft | 230 kts | 325° |
| 2026-05-07 20:40 | 3.57367 | 101.16389 | 4328 ft | 229 kts | 325° |
| 2026-05-07 20:40 | 3.58690 | 101.15499 | 4331 ft | 229 kts | 325° |
| 2026-05-07 20:41 | 3.60011 | 101.14616 | 4326 ft | 229 kts | 325° |
| 2026-05-07 20:41 | 3.61337 | 101.13730 | 4330 ft | 228 kts | 325° |
| 2026-05-07 20:41 | 3.62664 | 101.12851 | 4333 ft | 229 kts | 325° |
| 2026-05-07 20:41 | 3.63994 | 101.11969 | 4321 ft | 229 kts | 325° |
| 2026-05-07 20:42 | 3.65317 | 101.11087 | 4325 ft | 228 kts | 325° |
| 2026-05-07 20:42 | 3.66638 | 101.10207 | 4332 ft | 229 kts | 325° |
| 2026-05-07 20:42 | 3.67963 | 101.09321 | 4327 ft | 229 kts | 325° |
| 2026-05-07 20:42 | 3.69387 | 101.08568 | 4327 ft | 244 kts | 348° |
| 2026-05-07 20:43 | 3.71171 | 101.08749 | 4350 ft | 274 kts | 24° |
| 2026-05-07 20:43 | 3.72612 | 101.09965 | 4325 ft | 275 kts | 59° |
| 2026-05-07 20:43 | 3.73115 | 101.11753 | 4318 ft | 262 kts | 94° |
| 2026-05-07 20:43 | 3.72634 | 101.13419 | 4302 ft | 242 kts | 123° |
| 2026-05-07 20:44 | 3.71565 | 101.14612 | 4290 ft | 222 kts | 148° |
| 2026-05-07 20:44 | 3.70169 | 101.14924 | 4309 ft | 206 kts | 195° |
| 2026-05-07 20:44 | 3.69014 | 101.14131 | 4314 ft | 206 kts | 238° |
| 2026-05-07 20:44 | 3.68174 | 101.13010 | 4281 ft | 205 kts | 214° |
| 2026-05-07 20:45 | 3.66847 | 101.12688 | 4313 ft | 201 kts | 169° |
| 2026-05-07 20:45 | 3.65630 | 101.13366 | 4348 ft | 207 kts | 138° |
| 2026-05-07 20:45 | 3.64481 | 101.14258 | 4319 ft | 210 kts | 148° |
| 2026-05-07 20:45 | 3.63284 | 101.15086 | 4317 ft | 208 kts | 146° |
| 2026-05-07 20:46 | 3.62100 | 101.15923 | 4316 ft | 208 kts | 146° |
| 2026-05-07 20:46 | 3.60864 | 101.16673 | 4303 ft | 207 kts | 163° |
| 2026-05-07 20:46 | 3.59491 | 101.16636 | 4322 ft | 199 kts | 208° |
| 2026-05-07 20:46 | 3.58525 | 101.15646 | 4346 ft | 205 kts | 240° |
| 2026-05-07 20:47 | 3.57696 | 101.14480 | 4286 ft | 208 kts | 214° |
| 2026-05-07 20:47 | 3.56335 | 101.14145 | 4313 ft | 210 kts | 168° |
| 2026-05-07 20:47 | 3.55010 | 101.14926 | 4365 ft | 250 kts | 133° |
| 2026-05-07 20:47 | 3.53866 | 101.16328 | 4313 ft | 262 kts | 130° |
| 2026-05-07 20:48 | 3.52676 | 101.17711 | 4321 ft | 263 kts | 133° |
| 2026-05-07 20:48 | 3.51394 | 101.19029 | 4309 ft | 264 kts | 137° |
| 2026-05-07 20:48 | 3.50038 | 101.20277 | 4314 ft | 264 kts | 140° |
| 2026-05-07 20:48 | 3.48597 | 101.21418 | 4315 ft | 265 kts | 145° |
| 2026-05-07 20:49 | 3.47080 | 101.22481 | 4304 ft | 265 kts | 146° |
| 2026-05-07 20:49 | 3.45559 | 101.23525 | 4309 ft | 265 kts | 146° |
| 2026-05-07 20:49 | 3.44040 | 101.24570 | 4314 ft | 265 kts | 146° |
| 2026-05-07 20:49 | 3.42522 | 101.25619 | 4307 ft | 265 kts | 146° |
| 2026-05-07 20:50 | 3.41008 | 101.26670 | 4314 ft | 264 kts | 146° |
| 2026-05-07 20:50 | 3.39517 | 101.27710 | 4311 ft | 264 kts | 146° |
| 2026-05-07 20:50 | 3.38016 | 101.28760 | 4313 ft | 263 kts | 146° |
| 2026-05-07 20:50 | 3.36513 | 101.29812 | 4310 ft | 263 kts | 146° |
| 2026-05-07 20:51 | 3.35018 | 101.30861 | 4319 ft | 261 kts | 145° |
| 2026-05-07 20:51 | 3.33530 | 101.31906 | 4310 ft | 261 kts | 145° |
| 2026-05-07 20:51 | 3.32049 | 101.32947 | 4310 ft | 260 kts | 145° |
| 2026-05-07 20:51 | 3.30571 | 101.33986 | 4313 ft | 259 kts | 145° |
| 2026-05-07 20:52 | 3.29098 | 101.35022 | 4314 ft | 259 kts | 145° |
| 2026-05-07 20:52 | 3.27625 | 101.36058 | 4316 ft | 259 kts | 145° |
| 2026-05-07 20:52 | 3.26150 | 101.37095 | 4315 ft | 259 kts | 145° |
| 2026-05-07 20:52 | 3.24674 | 101.38132 | 4317 ft | 259 kts | 145° |
| 2026-05-07 20:53 | 3.23216 | 101.39157 | 4329 ft | 260 kts | 145° |
| 2026-05-07 20:53 | 3.21735 | 101.40199 | 4327 ft | 262 kts | 145° |
| 2026-05-07 20:53 | 3.20220 | 101.41264 | 4312 ft | 263 kts | 145° |
| 2026-05-07 20:53 | 3.18740 | 101.42305 | 4305 ft | 263 kts | 145° |
| 2026-05-07 20:54 | 3.17250 | 101.43353 | 4308 ft | 262 kts | 145° |
| 2026-05-07 20:54 | 3.15755 | 101.44404 | 4312 ft | 262 kts | 145° |
| 2026-05-07 20:54 | 3.14313 | 101.45418 | 4311 ft | 259 kts | 145° |
| 2026-05-07 20:54 | 3.12852 | 101.46446 | 4299 ft | 251 kts | 145° |
| 2026-05-07 20:55 | 3.11455 | 101.47431 | 4301 ft | 240 kts | 145° |
| 2026-05-07 20:55 | 3.10129 | 101.48355 | 4313 ft | 224 kts | 146° |
| 2026-05-07 20:55 | 3.08893 | 101.49202 | 4298 ft | 207 kts | 146° |
| 2026-05-07 20:55 | 3.07736 | 101.49988 | 4300 ft | 201 kts | 146° |
| 2026-05-07 20:56 | 3.06576 | 101.50772 | 4306 ft | 201 kts | 146° |
| 2026-05-07 20:56 | 3.05412 | 101.51559 | 4320 ft | 201 kts | 146° |
| 2026-05-07 20:56 | 3.04269 | 101.52330 | 4315 ft | 193 kts | 146° |
| 2026-05-07 20:56 | 3.03173 | 101.53071 | 4303 ft | 188 kts | 146° |
| 2026-05-07 20:57 | 3.02109 | 101.53789 | 4324 ft | 186 kts | 147° |
| 2026-05-07 20:57 | 3.01015 | 101.54528 | 4321 ft | 188 kts | 146° |
| 2026-05-07 20:57 | 2.99945 | 101.55250 | 4321 ft | 188 kts | 146° |
| 2026-05-07 20:57 | 2.98855 | 101.55986 | 4316 ft | 189 kts | 147° |
| 2026-05-07 20:58 | 2.97782 | 101.56710 | 4307 ft | 183 kts | 147° |
| 2026-05-07 20:58 | 2.96744 | 101.57412 | 4293 ft | 179 kts | 147° |
| 2026-05-07 20:58 | 2.95734 | 101.58095 | 4072 ft | 169 kts | 147° |
| 2026-05-07 20:58 | 2.94783 | 101.58736 | 3853 ft | 162 kts | 147° |
| 2026-05-07 20:59 | 2.93853 | 101.59363 | 3665 ft | 160 kts | 146° |
| 2026-05-07 20:59 | 2.92950 | 101.59974 | 3462 ft | 155 kts | 146° |
| 2026-05-07 20:59 | 2.92065 | 101.60572 | 3283 ft | 154 kts | 146° |
| 2026-05-07 20:59 | 2.91206 | 101.61152 | 3087 ft | 151 kts | 147° |
| 2026-05-07 21:00 | 2.90332 | 101.61740 | 2892 ft | 149 kts | 146° |
| 2026-05-07 21:00 | 2.89480 | 101.62317 | 2692 ft | 149 kts | 146° |
| 2026-05-07 21:00 | 2.88620 | 101.62897 | 2505 ft | 149 kts | 146° |
| 2026-05-07 21:00 | 2.87766 | 101.63475 | 2313 ft | 147 kts | 146° |
| 2026-05-07 21:01 | 2.86914 | 101.64050 | 2130 ft | 149 kts | 146° |
| 2026-05-07 21:01 | 2.86055 | 101.64630 | 1937 ft | 148 kts | 146° |
| 2026-05-07 21:01 | 2.85209 | 101.65201 | 1750 ft | 146 kts | 146° |
| 2026-05-07 21:01 | 2.84371 | 101.65766 | 1563 ft | 148 kts | 146° |
| 2026-05-07 21:02 | 2.83513 | 101.66346 | 1358 ft | 149 kts | 146° |
| 2026-05-07 21:02 | 2.82653 | 101.66927 | 1155 ft | 149 kts | 146° |
| 2026-05-07 21:02 | 2.81793 | 101.67508 | 966 ft | 150 kts | 146° |
| 2026-05-07 21:02 | 2.80927 | 101.68093 | 803 ft | 151 kts | 145° |
| 2026-05-07 21:03 | 2.80052 | 101.68684 | 629 ft | 152 kts | 146° |
| 2026-05-07 21:03 | 2.79184 | 101.69270 | 427 ft | 149 kts | 146° |
| 2026-05-07 21:03 | 2.78332 | 101.69845 | 238 ft | 147 kts | 146° |
| 2026-05-07 21:03 | 2.77497 | 101.70415 | 85 ft | 143 kts | 145° |
| 2026-05-07 21:04 | 2.76797 | 101.70892 | 62 ft | 71 kts | 146° |
| 2026-05-07 21:04 | 2.76512 | 101.71083 | 61 ft | 46 kts | 146° |
| 2026-05-07 21:04 | 2.76257 | 101.71249 | 68 ft | 36 kts | 154° |
| 2026-05-07 21:04 | 2.76066 | 101.71307 | 68 ft | 22 kts | 171° |
| 2026-05-07 21:05 | 2.76025 | 101.71309 | 71 ft | 0 kts | 176° |
| 2026-05-07 21:05 | 2.76024 | 101.71310 | 71 ft | 0 kts | 176° |
| 2026-05-07 21:06 | 2.76014 | 101.71310 | 72 ft | 3 kts | 176° |
| 2026-05-07 21:06 | 2.75980 | 101.71313 | 70 ft | 7 kts | 175° |
| 2026-05-07 21:06 | 2.75919 | 101.71318 | 63 ft | 11 kts | 175° |
| 2026-05-07 21:06 | 2.75833 | 101.71327 | 66 ft | 14 kts | 166° |
| 2026-05-07 21:07 | 2.75733 | 101.71375 | 67 ft | 18 kts | 146° |
| 2026-05-07 21:07 | 2.75622 | 101.71452 | 67 ft | 19 kts | 146° |
| 2026-05-07 21:07 | 2.75504 | 101.71529 | 66 ft | 22 kts | 146° |
| 2026-05-07 21:07 | 2.75368 | 101.71621 | 70 ft | 25 kts | 145° |
| 2026-05-07 21:08 | 2.75250 | 101.71700 | 71 ft | 15 kts | 149° |
| 2026-05-07 21:08 | 2.75176 | 101.71652 | 66 ft | 15 kts | 237° |
| 2026-05-07 21:08 | 2.75119 | 101.71570 | 72 ft | 14 kts | 236° |
| 2026-05-07 21:08 | 2.75066 | 101.71490 | 67 ft | 13 kts | 237° |
| 2026-05-07 21:09 | 2.75021 | 101.71419 | 70 ft | 11 kts | 247° |
| 2026-05-07 21:09 | 2.75050 | 101.71361 | 72 ft | 8 kts | 277° |
| 2026-05-07 21:09 | 2.75035 | 101.71332 | 67 ft | 0 kts | 236° |
| 2026-05-07 21:10 | 2.75031 | 101.71326 | 65 ft | 3 kts | 237° |
| 2026-05-07 21:10 | 2.75012 | 101.71297 | 72 ft | 4 kts | 236° |
| 2026-05-07 21:10 | 2.75010 | 101.71294 | 72 ft | 0 kts | 236° |